Hovedside
METAR-TAF:

METAR-TAF

Lufthavner :

Diourbel, Senegal

breddegrad: 14-39N, lengdegrad: 016-14W, høyde over havet: 7 m

Gjeldene værobservasjon

Denne rapporten ble laget for 4 timer og 5 minutter siden, klokken 00:00 UTC
Vind 4 kt fra Nord
Temperatur 23°C
Luftfuktighet 50%
Trykk 1013 hPa
Sikt: 8000 m

METAR: GOOD 290000Z 36004KT 8000 NSC 23/12 Q1013

Tid: 04:05 (04:05 UTC)


TAF: fraværende

Værobservasjoner og værvarsel for over 4000 flyplasser (METAR- og TAF-rapporter).

Tilgjengelige stasjoner er representert av de røde og gule prikkene på kartet.

Hold musepekeren over prikken for å se navnet på stasjonen.

Klikk så for å se værobservasjoner og -varsler.

For å forandre kartet kan du klikke på den grønne knappen med svart kryss for å zoome inn, på den grønne knappen med strek for å zoome ut, eller på de grønne pilene for å se tilstøtende kart.


METAR-TAF: